createdAt,value
2022-07-27T00:01:26.511Z,18.90
2022-07-27T00:04:15.101Z,19.00
2022-07-27T00:07:05.078Z,19.00
2022-07-27T00:09:53.776Z,19.10
2022-07-27T00:12:42.636Z,19.10
2022-07-27T00:15:31.534Z,18.90
2022-07-27T00:18:20.442Z,19.00
2022-07-27T00:21:09.485Z,18.90
2022-07-27T00:23:59.492Z,18.80
2022-07-27T00:26:48.146Z,18.80
2022-07-27T00:29:36.811Z,18.80
2022-07-27T00:32:25.370Z,18.80
2022-07-27T00:35:14.038Z,18.70
2022-07-27T00:38:02.665Z,18.70
2022-07-27T00:40:52.495Z,18.60
2022-07-27T00:43:54.777Z,18.50
2022-07-27T00:46:43.351Z,18.60
2022-07-27T00:49:31.998Z,18.50
2022-07-27T00:52:22.472Z,18.50
2022-07-27T00:55:11.343Z,18.50
2022-07-27T00:58:01.826Z,18.50
2022-07-27T01:00:50.347Z,18.40
2022-07-27T01:03:39.449Z,18.40
2022-07-27T01:06:29.005Z,18.40
2022-07-27T01:09:35.013Z,18.40
2022-07-27T01:12:24.160Z,18.40
2022-07-27T01:15:17.383Z,18.50
2022-07-27T01:18:11.532Z,18.50
2022-07-27T01:21:02.174Z,18.60
2022-07-27T01:23:52.083Z,18.50
2022-07-27T01:26:40.996Z,18.40
2022-07-27T01:29:29.486Z,18.40
2022-07-27T01:32:18.082Z,18.30
2022-07-27T01:35:07.415Z,18.30
2022-07-27T01:37:55.933Z,18.40
2022-07-27T01:40:45.891Z,18.40
2022-07-27T01:43:34.649Z,18.40
2022-07-27T01:46:24.307Z,18.50
2022-07-27T01:49:13.485Z,18.40
2022-07-27T01:52:02.224Z,18.40
2022-07-27T01:54:50.698Z,18.40
2022-07-27T01:57:40.982Z,18.50
2022-07-27T02:00:29.636Z,18.50
2022-07-27T02:03:18.360Z,18.30
2022-07-27T02:06:07.210Z,18.40
2022-07-27T02:08:55.700Z,18.30
2022-07-27T02:12:01.863Z,18.30
2022-07-27T02:14:51.745Z,18.30
2022-07-27T02:17:42.160Z,18.30
2022-07-27T02:20:31.955Z,18.20
2022-07-27T02:23:21.787Z,18.20
2022-07-27T02:26:10.832Z,18.30
2022-07-27T02:28:59.449Z,18.20
2022-07-27T02:31:49.354Z,18.10
2022-07-27T02:34:37.908Z,18.00
2022-07-27T02:37:26.639Z,17.90
2022-07-27T02:40:18.991Z,18.00
2022-07-27T02:43:07.535Z,18.00
2022-07-27T02:45:56.171Z,18.00
2022-07-27T02:48:46.259Z,18.00
2022-07-27T02:51:34.909Z,18.10
2022-07-27T02:54:25.263Z,18.10
2022-07-27T02:57:13.822Z,18.10
2022-07-27T03:00:02.524Z,18.20
2022-07-27T03:02:51.465Z,18.20
2022-07-27T03:05:41.383Z,18.10
2022-07-27T03:08:29.947Z,18.20
2022-07-27T03:11:18.502Z,18.20
2022-07-27T03:14:07.094Z,18.30
2022-07-27T03:16:55.966Z,18.30
2022-07-27T03:19:44.511Z,18.30
2022-07-27T03:22:34.404Z,18.20
2022-07-27T03:25:23.330Z,18.30
2022-07-27T03:28:11.934Z,18.30
2022-07-27T03:31:00.874Z,18.30
2022-07-27T03:33:49.589Z,18.30
2022-07-27T03:36:38.553Z,18.30
2022-07-27T03:39:28.777Z,18.30
2022-07-27T03:42:17.262Z,18.30
2022-07-27T03:45:06.990Z,18.20
2022-07-27T03:47:57.319Z,18.20
2022-07-27T03:50:45.770Z,18.10
2022-07-27T03:53:34.640Z,18.20
2022-07-27T03:56:24.505Z,18.10
2022-07-27T03:59:13.369Z,18.20
2022-07-27T04:02:02.201Z,18.10
2022-07-27T04:04:50.695Z,18.30
2022-07-27T04:07:39.466Z,18.20
2022-07-27T04:10:31.624Z,18.20
2022-07-27T04:13:21.971Z,18.20
2022-07-27T04:16:10.936Z,18.10
2022-07-27T04:18:59.727Z,18.00
2022-07-27T04:21:48.618Z,18.00
2022-07-27T04:24:37.147Z,18.00
2022-07-27T04:27:25.709Z,18.00
2022-07-27T04:30:16.009Z,17.90
2022-07-27T04:33:05.297Z,17.90
2022-07-27T04:35:53.828Z,18.10
2022-07-27T04:38:42.364Z,18.40
2022-07-27T04:41:31.132Z,18.50
2022-07-27T04:44:19.642Z,18.40
2022-07-27T04:47:09.604Z,18.30
2022-07-27T04:49:58.367Z,18.30
2022-07-27T04:52:49.921Z,18.30
2022-07-27T04:55:38.802Z,18.30
2022-07-27T04:58:27.286Z,18.20
2022-07-27T05:01:15.940Z,18.20
2022-07-27T05:04:06.260Z,18.20
2022-07-27T05:06:54.785Z,18.20
2022-07-27T05:09:43.579Z,18.40
2022-07-27T05:12:32.717Z,18.60
2022-07-27T05:15:21.399Z,18.70
2022-07-27T05:18:10.253Z,18.70
2022-07-27T05:21:00.375Z,18.90
2022-07-27T05:23:48.973Z,19.10
2022-07-27T05:26:37.672Z,19.20
2022-07-27T05:29:26.366Z,19.20
2022-07-27T05:32:15.014Z,19.30
2022-07-27T05:35:04.471Z,19.50
2022-07-27T05:37:54.579Z,19.70
2022-07-27T05:40:45.625Z,20.00
2022-07-27T05:43:34.163Z,20.40
2022-07-27T05:46:23.353Z,20.20
2022-07-27T05:49:12.588Z,19.90
2022-07-27T05:52:01.454Z,19.90
2022-07-27T05:54:51.410Z,19.90
2022-07-27T05:57:41.245Z,20.00
2022-07-27T06:00:29.777Z,20.10
2022-07-27T06:03:18.476Z,20.80
2022-07-27T06:06:35.791Z,21.80
2022-07-27T06:09:25.597Z,22.60
2022-07-27T06:12:15.520Z,21.90
2022-07-27T06:15:04.175Z,22.20
2022-07-27T06:17:54.271Z,21.70
2022-07-27T06:20:43.399Z,21.40
2022-07-27T06:23:32.297Z,21.20
2022-07-27T06:26:20.946Z,21.00
2022-07-27T06:29:11.356Z,20.70
2022-07-27T06:32:00.175Z,20.70
2022-07-27T06:34:51.272Z,20.50
2022-07-27T06:37:44.120Z,20.70
2022-07-27T06:40:33.649Z,20.80
2022-07-27T06:43:22.632Z,20.60
2022-07-27T06:46:12.939Z,20.90
2022-07-27T06:49:01.715Z,21.00
2022-07-27T06:51:50.428Z,21.20
2022-07-27T06:54:38.939Z,21.20
2022-07-27T06:57:27.454Z,21.20
2022-07-27T07:00:16.760Z,21.30
2022-07-27T07:03:07.943Z,21.40
2022-07-27T07:05:56.525Z,21.50
2022-07-27T07:08:45.081Z,21.50
2022-07-27T07:11:33.714Z,21.70
2022-07-27T07:14:22.763Z,21.80
2022-07-27T07:17:11.320Z,21.80
2022-07-27T07:20:01.356Z,21.90
2022-07-27T07:22:50.437Z,22.20
2022-07-27T07:25:40.865Z,22.30
2022-07-27T07:28:29.464Z,22.50
2022-07-27T07:31:20.028Z,22.70
2022-07-27T07:34:08.632Z,22.70
2022-07-27T07:36:58.667Z,23.00
2022-07-27T07:39:47.290Z,23.30
2022-07-27T07:42:51.269Z,23.60
2022-07-27T07:45:50.399Z,24.00
2022-07-27T07:48:40.202Z,24.00
2022-07-27T07:51:28.874Z,24.20
2022-07-27T07:54:18.881Z,24.50
2022-07-27T07:57:07.524Z,24.70
2022-07-27T07:59:56.460Z,25.00
2022-07-27T08:02:46.824Z,25.70
2022-07-27T08:05:35.934Z,26.20
2022-07-27T08:08:24.988Z,26.60
2022-07-27T08:11:15.401Z,26.90
2022-07-27T08:14:04.688Z,27.10
2022-07-27T08:16:53.505Z,27.30
2022-07-27T08:19:42.373Z,27.10
2022-07-27T08:22:31.018Z,27.60
2022-07-27T08:25:19.865Z,27.80
2022-07-27T08:28:09.812Z,28.20
2022-07-27T08:30:58.605Z,28.40
2022-07-27T08:33:48.140Z,28.80
2022-07-27T08:36:36.683Z,28.80
2022-07-27T08:40:06.160Z,29.20
2022-07-27T08:42:34.828Z,29.10
2022-07-27T08:45:25.278Z,29.30
2022-07-27T08:48:14.959Z,29.50
2022-07-27T08:51:03.560Z,29.70
2022-07-27T08:53:54.016Z,30.30
2022-07-27T08:56:43.648Z,30.50
2022-07-27T08:59:32.431Z,30.60
2022-07-27T09:02:24.454Z,31.30
2022-07-27T09:05:13.402Z,31.90
2022-07-27T09:08:11.643Z,32.10
2022-07-27T09:11:03.659Z,31.20
2022-07-27T09:14:03.647Z,32.60
2022-07-27T09:17:44.559Z,33.80
2022-07-27T09:20:04.857Z,33.80
2022-07-27T09:22:56.251Z,33.70
2022-07-27T09:26:02.918Z,34.90
2022-07-27T09:28:55.715Z,35.60
2022-07-27T09:31:46.097Z,34.70
2022-07-27T09:34:36.682Z,31.90
2022-07-27T09:37:28.799Z,32.10
2022-07-27T09:40:24.445Z,33.90
2022-07-27T09:46:35.418Z,32.60
2022-07-27T09:49:31.875Z,31.30
2022-07-27T09:52:24.797Z,33.10
2022-07-27T09:55:15.178Z,35.40
2022-07-27T09:58:03.781Z,36.00
2022-07-27T10:00:58.128Z,35.70
2022-07-27T10:03:48.991Z,34.60
2022-07-27T10:07:00.455Z,35.20
2022-07-27T10:09:47.110Z,33.40
2022-07-27T10:12:36.998Z,32.30
2022-07-27T10:15:26.300Z,32.30
2022-07-27T10:18:34.869Z,31.50
2022-07-27T10:21:26.766Z,30.50
2022-07-27T10:24:28.924Z,31.10
2022-07-27T10:27:22.412Z,30.50
2022-07-27T10:30:14.697Z,32.10
2022-07-27T10:33:13.729Z,31.90
2022-07-27T10:36:04.276Z,32.60
2022-07-27T10:38:56.524Z,33.20
2022-07-27T10:41:45.088Z,33.30
2022-07-27T10:44:33.742Z,32.70
2022-07-27T10:47:33.575Z,32.70
2022-07-27T10:50:32.853Z,33.30
2022-07-27T10:53:55.087Z,34.60
2022-07-27T10:56:47.416Z,34.60
2022-07-27T11:00:07.932Z,35.20
2022-07-27T11:02:59.660Z,34.20
2022-07-27T11:06:01.970Z,32.70
2022-07-27T11:12:13.217Z,33.20
2022-07-27T11:15:02.744Z,35.00
2022-07-27T11:18:00.401Z,35.10
2022-07-27T11:20:51.929Z,34.30
2022-07-27T11:23:51.001Z,35.30
2022-07-27T11:26:42.623Z,35.20
2022-07-27T11:29:37.905Z,33.60
2022-07-27T11:32:37.305Z,33.20
2022-07-27T11:35:26.118Z,31.80
2022-07-27T11:38:16.293Z,31.10
2022-07-27T11:41:15.233Z,30.30
2022-07-27T11:44:14.463Z,29.90
2022-07-27T11:47:04.607Z,29.90
2022-07-27T11:49:54.216Z,29.30
2022-07-27T11:52:42.920Z,29.20
2022-07-27T11:55:32.943Z,28.80
2022-07-27T11:58:21.480Z,28.50
2022-07-27T12:01:10.170Z,29.40
2022-07-27T12:04:14.120Z,29.50
2022-07-27T12:07:06.106Z,28.80
2022-07-27T12:09:56.929Z,29.80
2022-07-27T12:12:50.743Z,28.90
2022-07-27T12:15:47.046Z,30.30
2022-07-27T12:18:43.548Z,32.60
2022-07-27T12:21:32.422Z,34.30
2022-07-27T12:24:32.327Z,35.50
2022-07-27T12:27:22.025Z,35.90
2022-07-27T12:30:14.109Z,33.60
2022-07-27T12:33:03.281Z,33.20
2022-07-27T12:35:52.056Z,31.10
2022-07-27T12:38:43.737Z,29.90
2022-07-27T12:41:36.475Z,29.30
2022-07-27T12:44:33.692Z,28.70
2022-07-27T12:47:41.600Z,28.60
2022-07-27T12:50:30.543Z,28.50
2022-07-27T12:53:23.713Z,28.10
2022-07-27T12:56:12.359Z,27.90
2022-07-27T12:59:01.411Z,27.40
2022-07-27T13:01:51.412Z,27.20
2022-07-27T13:04:42.894Z,26.80
2022-07-27T13:10:22.037Z,26.60
2022-07-27T13:13:10.613Z,26.90
2022-07-27T13:15:59.112Z,26.70
2022-07-27T13:18:47.580Z,26.50
2022-07-27T13:21:37.599Z,26.60
2022-07-27T13:24:26.542Z,26.50
2022-07-27T13:27:15.230Z,26.50
2022-07-27T13:30:04.718Z,26.40
2022-07-27T13:32:53.403Z,26.40
2022-07-27T13:35:42.678Z,26.50
2022-07-27T13:38:32.724Z,26.40
2022-07-27T13:41:23.108Z,26.20
2022-07-27T13:44:29.886Z,26.30
2022-07-27T13:47:20.292Z,26.20
2022-07-27T13:50:17.453Z,26.40
2022-07-27T13:53:07.268Z,26.30
2022-07-27T13:55:57.809Z,26.10
2022-07-27T13:58:46.353Z,26.00
2022-07-27T14:01:35.517Z,25.80
2022-07-27T14:04:26.365Z,25.80
2022-07-27T14:07:14.958Z,25.50
2022-07-27T14:10:21.050Z,25.60
2022-07-27T14:13:13.422Z,25.50
2022-07-27T14:16:03.157Z,25.50
2022-07-27T14:18:52.290Z,25.60
2022-07-27T14:21:40.836Z,25.60
2022-07-27T14:24:30.351Z,25.70
2022-07-27T14:27:21.021Z,25.70
2022-07-27T14:30:15.074Z,25.50
2022-07-27T14:33:06.081Z,25.50
2022-07-27T14:35:55.220Z,25.50
2022-07-27T14:38:46.830Z,25.50
2022-07-27T14:41:36.742Z,25.20
2022-07-27T14:44:26.839Z,25.20
2022-07-27T14:47:17.460Z,25.10
2022-07-27T14:50:08.971Z,25.00
2022-07-27T14:52:58.322Z,25.20
2022-07-27T14:55:47.128Z,25.00
2022-07-27T14:58:35.725Z,25.20
2022-07-27T15:01:24.630Z,25.40
2022-07-27T15:04:14.589Z,25.30
2022-07-27T15:07:03.698Z,25.40
2022-07-27T15:09:52.328Z,25.40
2022-07-27T15:12:41.210Z,25.50
2022-07-27T15:15:29.857Z,25.30
2022-07-27T15:18:19.483Z,25.20
2022-07-27T15:21:13.434Z,25.30
2022-07-27T15:24:03.083Z,25.30
2022-07-27T15:26:51.671Z,25.20
2022-07-27T15:29:40.395Z,25.10
2022-07-27T15:32:29.254Z,25.00
2022-07-27T15:35:18.594Z,24.90
2022-07-27T15:38:09.110Z,25.00
2022-07-27T15:40:57.778Z,25.00
2022-07-27T15:43:46.391Z,25.00
2022-07-27T15:46:35.536Z,25.10
2022-07-27T15:49:24.224Z,25.00
2022-07-27T15:52:12.943Z,24.90
2022-07-27T15:55:02.889Z,25.00
2022-07-27T15:57:51.587Z,25.00
2022-07-27T16:00:41.688Z,24.80
2022-07-27T16:03:30.784Z,24.70
2022-07-27T16:06:20.287Z,24.50
2022-07-27T16:09:10.554Z,24.70
2022-07-27T16:12:01.030Z,24.70
2022-07-27T16:14:49.710Z,24.80
2022-07-27T16:17:38.424Z,24.90
2022-07-27T16:20:27.012Z,24.70
2022-07-27T16:23:18.906Z,24.70
2022-07-27T16:26:10.622Z,24.50
2022-07-27T16:29:02.081Z,24.50
2022-07-27T16:31:51.245Z,24.10
2022-07-27T16:34:40.138Z,24.10
2022-07-27T16:37:29.034Z,24.20
2022-07-27T16:40:17.663Z,24.20
2022-07-27T16:43:06.661Z,24.40
2022-07-27T16:45:57.421Z,24.30
2022-07-27T16:48:46.208Z,24.20
2022-07-27T16:51:36.509Z,24.00
2022-07-27T16:54:25.262Z,24.00
2022-07-27T16:57:13.980Z,24.00
2022-07-27T17:00:05.450Z,24.10
2022-07-27T17:02:55.437Z,24.10
2022-07-27T17:05:44.066Z,24.00
2022-07-27T17:08:32.732Z,24.20
2022-07-27T17:11:22.610Z,24.00
2022-07-27T17:14:14.541Z,24.00
2022-07-27T17:17:03.091Z,23.90
2022-07-27T17:19:53.303Z,23.90
2022-07-27T17:22:41.991Z,23.80
2022-07-27T17:25:31.174Z,23.80
2022-07-27T17:28:20.745Z,23.60
2022-07-27T17:31:11.443Z,23.60
2022-07-27T17:34:00.101Z,23.60
2022-07-27T17:36:51.480Z,23.50
2022-07-27T17:39:40.572Z,23.50
2022-07-27T17:42:29.129Z,23.40
2022-07-27T17:45:17.640Z,23.30
2022-07-27T17:48:08.071Z,23.30
2022-07-27T17:50:56.783Z,23.20
2022-07-27T17:53:47.263Z,23.20
2022-07-27T17:56:35.855Z,23.10
2022-07-27T17:59:37.570Z,23.00
2022-07-27T18:02:26.629Z,23.00
2022-07-27T18:05:15.288Z,23.00
2022-07-27T18:08:03.888Z,22.90
2022-07-27T18:10:54.051Z,23.00
2022-07-27T18:13:43.225Z,23.00
2022-07-27T18:16:35.081Z,22.90
2022-07-27T18:19:26.879Z,22.80
2022-07-27T18:22:18.315Z,22.90
2022-07-27T18:25:08.322Z,22.80
2022-07-27T18:27:58.603Z,22.70
2022-07-27T18:30:48.815Z,22.60
2022-07-27T18:33:38.024Z,22.50
2022-07-27T18:36:26.687Z,22.50
2022-07-27T18:39:15.792Z,22.40
2022-07-27T18:42:05.061Z,22.40
2022-07-27T18:44:55.244Z,22.30
2022-07-27T18:47:49.063Z,22.20
2022-07-27T18:50:39.543Z,22.20
2022-07-27T18:53:28.612Z,22.20
2022-07-27T18:56:17.228Z,22.20
2022-07-27T18:59:05.930Z,22.10
2022-07-27T19:01:56.376Z,22.00
2022-07-27T19:04:45.169Z,22.00
2022-07-27T19:07:34.414Z,22.00
2022-07-27T19:10:25.429Z,21.90
2022-07-27T19:13:14.748Z,21.90
2022-07-27T19:16:03.330Z,21.80
2022-07-27T19:18:53.760Z,21.80
2022-07-27T19:21:42.659Z,21.80
2022-07-27T19:24:31.348Z,21.70
2022-07-27T19:27:19.989Z,21.60
2022-07-27T19:30:10.182Z,21.60
2022-07-27T19:32:58.966Z,21.60
2022-07-27T19:35:50.748Z,21.50
2022-07-27T19:38:39.404Z,21.50
2022-07-27T19:41:30.565Z,21.50
2022-07-27T19:44:22.319Z,21.40
2022-07-27T19:47:11.148Z,21.40
2022-07-27T19:50:00.943Z,21.40
2022-07-27T19:52:50.945Z,21.30
2022-07-27T19:55:39.604Z,21.30
2022-07-27T19:58:28.393Z,21.30
2022-07-27T20:01:17.326Z,21.10
2022-07-27T20:04:07.386Z,21.00
2022-07-27T20:06:55.968Z,21.20
2022-07-27T20:09:45.898Z,21.10
2022-07-27T20:12:34.986Z,21.10
2022-07-27T20:15:23.805Z,21.00
2022-07-27T20:18:12.435Z,21.10
2022-07-27T20:21:01.229Z,21.10
2022-07-27T20:23:49.902Z,21.00
2022-07-27T20:26:40.043Z,21.10
2022-07-27T20:29:31.479Z,20.90
2022-07-27T20:32:20.622Z,20.90
2022-07-27T20:35:09.803Z,20.90
2022-07-27T20:37:58.557Z,20.80
2022-07-27T20:40:47.204Z,20.80
2022-07-27T20:43:37.517Z,20.80
2022-07-27T20:46:26.344Z,20.70
2022-07-27T20:49:16.648Z,20.80
2022-07-27T20:52:06.324Z,20.70
2022-07-27T20:54:54.867Z,20.80
2022-07-27T20:57:43.569Z,20.60
2022-07-27T21:00:33.766Z,20.60
2022-07-27T21:03:22.639Z,20.50
2022-07-27T21:06:11.301Z,20.50
2022-07-27T21:08:59.905Z,20.50
2022-07-27T21:11:49.001Z,20.50
2022-07-27T21:14:37.591Z,20.60
2022-07-27T21:17:27.687Z,20.50
2022-07-27T21:20:16.299Z,20.40
2022-07-27T21:23:22.106Z,20.30
2022-07-27T21:26:10.628Z,20.40
2022-07-27T21:28:59.908Z,20.30
2022-07-27T21:31:50.778Z,20.20
2022-07-27T21:34:40.732Z,20.30
2022-07-27T21:37:29.266Z,20.10
2022-07-27T21:40:18.419Z,20.10
2022-07-27T21:43:07.256Z,20.00
2022-07-27T21:45:55.877Z,20.00
2022-07-27T21:48:44.848Z,20.00
2022-07-27T21:51:35.141Z,20.00
2022-07-27T21:54:23.740Z,19.90
2022-07-27T21:57:12.437Z,19.80
2022-07-27T22:00:01.193Z,19.80
2022-07-27T22:02:50.306Z,19.70
2022-07-27T22:05:38.795Z,19.80
2022-07-27T22:08:28.894Z,19.80
2022-07-27T22:11:17.478Z,19.80
2022-07-27T22:14:06.037Z,19.70
2022-07-27T22:16:54.815Z,19.60
2022-07-27T22:19:44.413Z,19.60
2022-07-27T22:22:32.902Z,19.70
2022-07-27T22:25:22.958Z,19.60
2022-07-27T22:28:11.524Z,19.70
2022-07-27T22:31:21.278Z,19.60
2022-07-27T22:34:08.653Z,19.60
2022-07-27T22:36:57.645Z,19.50
2022-07-27T22:39:46.230Z,19.40
2022-07-27T22:42:36.175Z,19.40
2022-07-27T22:45:25.099Z,19.40
2022-07-27T22:48:13.718Z,19.40
2022-07-27T22:51:03.107Z,19.40
2022-07-27T22:53:51.764Z,19.30
2022-07-27T22:56:40.421Z,19.40
2022-07-27T22:59:32.891Z,19.30
2022-07-27T23:02:21.679Z,19.20
2022-07-27T23:05:10.813Z,19.10
2022-07-27T23:07:59.627Z,19.10
2022-07-27T23:10:48.178Z,19.10
2022-07-27T23:13:36.811Z,19.00
2022-07-27T23:16:26.752Z,19.00
2022-07-27T23:19:16.193Z,18.90
2022-07-27T23:22:04.801Z,18.80
2022-07-27T23:24:59.743Z,18.80
2022-07-27T23:27:48.356Z,18.80
2022-07-27T23:30:38.050Z,18.80
2022-07-27T23:33:28.051Z,18.80
2022-07-27T23:36:16.923Z,18.50
2022-07-27T23:39:05.921Z,18.50
2022-07-27T23:41:54.680Z,18.80
2022-07-27T23:44:43.267Z,18.50
2022-07-27T23:47:32.145Z,18.50
2022-07-27T23:50:22.249Z,18.60
2022-07-27T23:53:10.901Z,18.50
2022-07-27T23:55:59.567Z,18.50
2022-07-27T23:58:48.070Z,18.50
